TimePDT,TemperatureF,Dew PointF,Humidity,Sea Level PressureIn,VisibilityMPH,Wind Direction,Wind SpeedMPH,Gust SpeedMPH,PrecipitationIn,Events,Conditions,WindDirDegrees,DateUTC
12:15 AM,55.4,46.4,72,30.25,10.0,NNE,4.6,-,N/A,,Overcast,30,2012-10-13 07:15:00
12:35 AM,55.4,46.4,72,30.25,10.0,NNE,4.6,-,N/A,,Overcast,30,2012-10-13 07:35:00
12:55 AM,55.4,46.4,72,30.25,10.0,NE,6.9,-,N/A,,Overcast,40,2012-10-13 07:55:00
1:15 AM,55.4,46.4,72,30.25,10.0,NE,5.8,-,N/A,,Overcast,50,2012-10-13 08:15:00
1:35 AM,55.4,46.4,72,30.26,10.0,NE,4.6,-,N/A,,Overcast,50,2012-10-13 08:35:00
1:55 AM,55.4,46.4,72,30.26,10.0,NE,4.6,-,N/A,,Overcast,50,2012-10-13 08:55:00
2:15 AM,55.4,46.4,72,30.27,10.0,NE,4.6,-,N/A,,Mostly Cloudy,40,2012-10-13 09:15:00
2:35 AM,53.6,46.4,77,30.27,10.0,Calm,Calm,-,N/A,,Mostly Cloudy,0,2012-10-13 09:35:00
3:35 AM,50.0,44.6,82,30.26,10.0,Calm,Calm,-,N/A,,Scattered Clouds,0,2012-10-13 10:35:00
3:55 AM,51.8,44.6,76,30.26,10.0,Calm,Calm,-,N/A,,Partly Cloudy,0,2012-10-13 10:55:00
4:15 AM,50.0,44.6,82,30.27,10.0,Calm,Calm,-,N/A,,Clear,0,2012-10-13 11:15:00
4:35 AM,50.0,44.6,82,30.27,10.0,Calm,Calm,-,N/A,,Clear,0,2012-10-13 11:35:00
4:55 AM,50.0,44.6,82,30.28,10.0,North,3.5,-,N/A,,Partly Cloudy,350,2012-10-13 11:55:00
5:15 AM,50.0,44.6,82,30.28,10.0,NNW,3.5,-,N/A,,Clear,330,2012-10-13 12:15:00
5:35 AM,50.0,44.6,82,30.28,10.0,Calm,Calm,-,N/A,,Clear,0,2012-10-13 12:35:00
5:55 AM,48.2,44.6,87,30.28,10.0,Calm,Calm,-,N/A,,Clear,0,2012-10-13 12:55:00
6:15 AM,48.2,44.6,87,30.28,10.0,Calm,Calm,-,N/A,,Clear,0,2012-10-13 13:15:00
6:50 AM,50.0,44.6,82,30.30,25.0,Calm,Calm,-,N/A,,Clear,0,2012-10-13 13:50:00
6:55 AM,50.0,44.6,82,30.30,10.0,Calm,Calm,-,N/A,,Clear,0,2012-10-13 13:55:00
8:55 AM,53.6,44.6,72,30.31,25.0,Calm,Calm,-,N/A,,Clear,0,2012-10-13 15:55:00
9:57 AM,59.0,46.4,63,30.31,25.0,West,5.8,-,N/A,,Scattered Clouds,280,2012-10-13 16:57:00
10:59 AM,66.2,48.2,52,30.29,25.0,WNW,11.5,-,N/A,,Scattered Clouds,300,2012-10-13 17:59:00
1:55 PM,73.4,46.4,38,30.20,40.0,WNW,13.8,-,N/A,,Scattered Clouds,300,2012-10-13 20:55:00
2:50 PM,75.2,48.2,38,30.17,40.0,WNW,13.8,19.6,N/A,,Scattered Clouds,300,2012-10-13 21:50:00
3:52 PM,77.0,48.2,36,30.16,40.0,WNW,13.8,-,N/A,,Scattered Clouds,300,2012-10-13 22:52:00
5:47 PM,75.2,50.0,41,30.14,40.0,SW,5.8,-,N/A,,Scattered Clouds,220,2012-10-14 00:47:00
6:58 PM,71.6,50.0,46,30.15,40.0,Calm,Calm,-,N/A,,Clear,0,2012-10-14 01:58:00
7:55 PM,69.8,50.0,49,30.16,10.0,East,4.6,-,N/A,,Clear,90,2012-10-14 02:55:00
8:15 PM,68.0,50.0,52,30.16,10.0,East,5.8,-,N/A,,Clear,90,2012-10-14 03:15:00
8:55 PM,66.2,50.0,56,30.17,10.0,Calm,Calm,-,N/A,,Clear,0,2012-10-14 03:55:00
9:15 PM,66.2,48.2,52,30.17,10.0,Calm,Calm,-,N/A,,Clear,0,2012-10-14 04:15:00
9:35 PM,64.4,48.2,56,30.17,10.0,Calm,Calm,-,N/A,,Clear,0,2012-10-14 04:35:00
10:15 PM,64.4,48.2,56,30.17,10.0,Calm,Calm,-,N/A,,Clear,0,2012-10-14 05:15:00
10:35 PM,62.6,48.2,59,30.17,10.0,ENE,4.6,-,N/A,,Clear,70,2012-10-14 05:35:00
10:55 PM,62.6,48.2,59,30.17,10.0,Calm,Calm,-,N/A,,Clear,0,2012-10-14 05:55:00
11:15 PM,62.6,48.2,59,30.17,10.0,NE,3.5,-,N/A,,Clear,50,2012-10-14 06:15:00
11:35 PM,62.6,48.2,59,30.17,10.0,NE,5.8,-,N/A,,Clear,50,2012-10-14 06:35:00
11:55 PM,62.6,48.2,59,30.16,10.0,ENE,4.6,-,N/A,,Clear,60,2012-10-14 06:55:00